createdAt,value
2018-02-27T00:00:15.949Z,65.67
2018-02-27T00:02:45.092Z,65.71
2018-02-27T00:05:14.208Z,65.83
2018-02-27T00:07:42.589Z,65.86
2018-02-27T00:10:10.930Z,66.15
2018-02-27T00:12:39.296Z,65.98
2018-02-27T00:15:07.628Z,65.50
2018-02-27T00:17:36.026Z,65.41
2018-02-27T00:20:05.157Z,65.27
2018-02-27T00:22:33.490Z,65.08
2018-02-27T00:25:01.877Z,65.09
2018-02-27T00:27:30.972Z,65.21
2018-02-27T00:30:00.104Z,65.25
2018-02-27T00:32:29.216Z,65.02
2018-02-27T00:34:57.583Z,64.86
2018-02-27T00:37:25.978Z,64.84
2018-02-27T00:39:54.727Z,64.72
2018-02-27T00:42:23.096Z,64.70
2018-02-27T00:44:52.204Z,64.74
2018-02-27T00:47:20.585Z,64.94
2018-02-27T00:49:48.950Z,64.93
2018-02-27T00:52:17.337Z,65.03
2018-02-27T00:54:45.688Z,65.21
2018-02-27T00:57:14.833Z,65.34
2018-02-27T00:59:43.193Z,65.39
2018-02-27T01:02:11.569Z,65.32
2018-02-27T01:04:39.933Z,65.26
2018-02-27T01:07:09.087Z,65.21
2018-02-27T01:09:37.412Z,65.15
2018-02-27T01:12:05.771Z,65.27
2018-02-27T01:14:34.923Z,65.24
2018-02-27T01:17:03.651Z,65.13
2018-02-27T01:19:32.796Z,65.20
2018-02-27T01:22:02.293Z,65.32
2018-02-27T01:24:30.669Z,65.59
2018-02-27T01:26:59.021Z,65.73
2018-02-27T01:29:28.155Z,65.74
2018-02-27T01:31:56.509Z,66.11
2018-02-27T01:34:25.320Z,65.97
2018-02-27T01:36:53.721Z,65.88
2018-02-27T01:39:22.051Z,65.92
2018-02-27T01:41:50.385Z,65.73
2018-02-27T01:44:18.757Z,65.76
2018-02-27T01:46:51.463Z,65.89
2018-02-27T01:49:19.836Z,65.92
2018-02-27T01:51:48.206Z,65.94
2018-02-27T01:54:18.053Z,66.26
2018-02-27T01:56:46.833Z,66.43
2018-02-27T01:59:15.940Z,66.67
2018-02-27T02:01:44.258Z,66.86
2018-02-27T02:04:12.640Z,66.98
2018-02-27T02:06:40.989Z,67.04
2018-02-27T02:09:09.360Z,67.31
2018-02-27T02:11:38.096Z,67.27
2018-02-27T02:14:06.466Z,67.45
2018-02-27T02:16:34.797Z,67.68
2018-02-27T02:19:03.115Z,67.49
2018-02-27T02:21:31.605Z,67.72
2018-02-27T02:24:00.083Z,67.78
2018-02-27T02:26:28.425Z,67.79
2018-02-27T02:28:56.760Z,67.77
2018-02-27T02:31:25.906Z,67.91
2018-02-27T02:33:54.229Z,67.83
2018-02-27T02:36:23.328Z,68.06
2018-02-27T02:38:52.446Z,68.58
2018-02-27T02:41:20.798Z,68.83
2018-02-27T02:43:49.160Z,69.06
2018-02-27T02:46:17.535Z,68.93
2018-02-27T02:48:46.698Z,69.29
2018-02-27T02:51:15.029Z,69.57
2018-02-27T02:53:43.436Z,69.68
2018-02-27T02:56:11.776Z,69.56
2018-02-27T02:58:40.163Z,69.56
2018-02-27T03:01:08.569Z,69.37
2018-02-27T03:03:36.891Z,69.29
2018-02-27T03:06:05.664Z,69.53
2018-02-27T03:08:34.000Z,69.41
2018-02-27T03:11:03.140Z,69.59
2018-02-27T03:13:31.511Z,69.47
2018-02-27T03:15:59.848Z,69.47
2018-02-27T03:18:28.994Z,69.69
2018-02-27T03:20:57.326Z,69.75
2018-02-27T03:23:26.117Z,70.08
2018-02-27T03:25:54.465Z,70.46
2018-02-27T03:28:23.579Z,70.64
2018-02-27T03:30:52.720Z,70.39
2018-02-27T03:33:21.034Z,70.72
2018-02-27T03:35:49.396Z,70.56
2018-02-27T03:38:17.722Z,70.64
2018-02-27T03:40:46.089Z,70.61
2018-02-27T03:43:15.204Z,70.68
2018-02-27T03:45:43.570Z,70.85
2018-02-27T03:48:12.688Z,70.98
2018-02-27T03:50:41.044Z,71.21
2018-02-27T03:53:09.420Z,71.23
2018-02-27T03:55:37.758Z,71.36
2018-02-27T03:58:06.139Z,71.89
2018-02-27T04:00:34.454Z,71.98
2018-02-27T04:03:02.791Z,72.27
2018-02-27T04:05:31.167Z,72.67
2018-02-27T04:07:59.546Z,72.75
2018-02-27T04:10:28.295Z,72.58
2018-02-27T04:12:57.434Z,73.03
2018-02-27T04:15:27.275Z,72.87
2018-02-27T04:17:56.404Z,73.24
2018-02-27T04:20:24.747Z,73.35
2018-02-27T04:22:53.837Z,73.36
2018-02-27T04:25:22.594Z,73.44
2018-02-27T04:27:50.919Z,73.49
2018-02-27T04:30:19.238Z,73.52
2018-02-27T04:32:48.362Z,73.61
2018-02-27T04:35:17.843Z,73.52
2018-02-27T04:37:47.733Z,73.64
2018-02-27T04:40:16.085Z,73.59
2018-02-27T04:42:44.398Z,73.64
2018-02-27T04:45:13.575Z,73.65
2018-02-27T04:47:42.297Z,73.61
2018-02-27T04:50:10.775Z,73.60
2018-02-27T04:52:39.515Z,73.73
2018-02-27T04:55:07.892Z,73.79
2018-02-27T04:57:36.249Z,73.82
2018-02-27T05:00:05.383Z,73.60
2018-02-27T05:02:34.483Z,73.48
2018-02-27T05:05:02.846Z,73.47
2018-02-27T05:07:31.252Z,73.61
2018-02-27T05:09:59.693Z,73.69
2018-02-27T05:12:28.051Z,73.84
2018-02-27T05:14:56.784Z,74.14
2018-02-27T05:17:25.138Z,74.47
2018-02-27T05:19:53.487Z,74.40
2018-02-27T05:22:22.259Z,74.39
2018-02-27T05:24:50.588Z,74.09
2018-02-27T05:27:19.703Z,73.98
2018-02-27T05:29:48.843Z,74.13
2018-02-27T05:32:17.942Z,74.33
2018-02-27T05:34:46.703Z,74.47
2018-02-27T05:37:15.070Z,74.53
2018-02-27T05:39:43.393Z,74.63
2018-02-27T05:42:12.542Z,74.63
2018-02-27T05:44:40.900Z,74.73
2018-02-27T05:47:09.275Z,75.19
2018-02-27T05:49:38.032Z,75.11
2018-02-27T05:52:07.173Z,74.58
2018-02-27T05:54:35.928Z,74.36
2018-02-27T05:57:04.278Z,73.99
2018-02-27T05:59:33.062Z,73.81
2018-02-27T06:02:01.411Z,73.76
2018-02-27T06:04:29.818Z,73.60
2018-02-27T06:06:58.155Z,73.54
2018-02-27T06:09:26.532Z,73.37
2018-02-27T06:11:54.857Z,72.97
2018-02-27T06:14:23.185Z,72.68
2018-02-27T06:16:51.603Z,72.59
2018-02-27T06:19:19.974Z,72.65
2018-02-27T06:21:48.355Z,72.51
2018-02-27T06:24:16.962Z,72.29
2018-02-27T06:26:45.302Z,72.16
2018-02-27T06:29:13.677Z,72.06
2018-02-27T06:31:42.779Z,71.99
2018-02-27T06:34:11.539Z,71.76
2018-02-27T06:36:39.899Z,71.55
2018-02-27T06:39:08.294Z,71.53
2018-02-27T06:41:36.670Z,71.22
2018-02-27T06:44:05.087Z,71.20
2018-02-27T06:46:33.470Z,71.06
2018-02-27T06:49:01.801Z,70.80
2018-02-27T06:51:30.810Z,70.69
2018-02-27T06:54:00.140Z,70.56
2018-02-27T06:56:28.483Z,70.47
2018-02-27T06:58:56.842Z,70.46
2018-02-27T07:01:25.227Z,70.45
2018-02-27T07:03:54.334Z,70.28
2018-02-27T07:06:22.717Z,70.06
2018-02-27T07:08:51.447Z,69.91
2018-02-27T07:11:20.588Z,69.80
2018-02-27T07:13:49.842Z,69.79
2018-02-27T07:16:18.958Z,69.73
2018-02-27T07:18:48.085Z,69.73
2018-02-27T07:21:16.854Z,69.65
2018-02-27T07:23:45.197Z,69.45
2018-02-27T07:26:13.590Z,69.00
2018-02-27T07:28:42.711Z,68.60
2018-02-27T07:31:11.466Z,68.14
2018-02-27T07:33:40.608Z,67.67
2018-02-27T07:36:09.018Z,67.31
2018-02-27T07:38:37.344Z,67.16
2018-02-27T07:41:06.082Z,67.09
2018-02-27T07:43:35.212Z,66.87
2018-02-27T07:46:04.354Z,66.70
2018-02-27T07:48:33.448Z,66.44
2018-02-27T07:51:02.242Z,66.24
2018-02-27T07:53:30.620Z,65.71
2018-02-27T07:55:58.990Z,65.30
2018-02-27T07:58:27.846Z,64.87
2018-02-27T08:00:56.184Z,64.56
2018-02-27T08:03:24.942Z,64.45
2018-02-27T08:05:53.314Z,64.47
2018-02-27T08:08:22.466Z,64.55
2018-02-27T08:10:51.566Z,64.47
2018-02-27T08:13:20.718Z,64.44
2018-02-27T08:15:49.613Z,64.22
2018-02-27T08:18:17.947Z,63.64
2018-02-27T08:20:46.272Z,62.98
2018-02-27T08:23:14.696Z,62.89
2018-02-27T08:25:43.417Z,61.43
2018-02-27T08:28:11.782Z,60.67
2018-02-27T08:30:40.108Z,60.56
2018-02-27T08:33:08.458Z,60.64
2018-02-27T08:35:37.225Z,60.00
2018-02-27T08:38:05.566Z,58.83
2018-02-27T08:40:34.308Z,58.71
2018-02-27T08:43:02.705Z,58.10
2018-02-27T08:45:31.459Z,57.35
2018-02-27T08:48:00.583Z,56.45
2018-02-27T08:50:28.985Z,55.92
2018-02-27T08:52:57.698Z,55.97
2018-02-27T08:55:26.833Z,55.70
2018-02-27T08:57:55.182Z,56.17
2018-02-27T09:00:23.946Z,55.56
2018-02-27T09:02:53.070Z,54.87
2018-02-27T09:05:21.440Z,53.60
2018-02-27T09:07:50.202Z,53.24
2018-02-27T09:10:18.974Z,52.81
2018-02-27T09:12:47.298Z,52.21
2018-02-27T09:15:15.778Z,51.90
2018-02-27T09:17:44.098Z,50.67
2018-02-27T09:20:12.461Z,51.33
2018-02-27T09:22:41.279Z,50.14
2018-02-27T09:25:10.413Z,50.48
2018-02-27T09:27:39.135Z,50.23
2018-02-27T09:30:07.497Z,51.00
2018-02-27T09:32:35.872Z,50.67
2018-02-27T09:35:04.241Z,50.22
2018-02-27T09:37:32.628Z,50.37
2018-02-27T09:40:00.965Z,50.46
2018-02-27T09:42:30.077Z,50.22
2018-02-27T09:44:58.441Z,50.03
2018-02-27T09:47:26.822Z,50.11
2018-02-27T09:49:55.600Z,49.72
2018-02-27T09:52:24.683Z,50.06
2018-02-27T09:54:53.033Z,49.76
2018-02-27T09:57:21.407Z,49.43
2018-02-27T09:59:50.161Z,49.71
2018-02-27T10:02:19.276Z,49.01
2018-02-27T10:04:47.647Z,47.94
2018-02-27T10:07:15.979Z,47.91
2018-02-27T10:09:44.349Z,47.43
2018-02-27T10:12:12.767Z,46.84
2018-02-27T10:14:41.134Z,45.94
2018-02-27T10:17:09.907Z,46.33
2018-02-27T10:19:39.052Z,46.56
2018-02-27T10:22:07.408Z,46.35
2018-02-27T10:24:35.785Z,46.14
2018-02-27T10:27:04.943Z,46.42
2018-02-27T10:29:33.868Z,45.98
2018-02-27T10:32:02.268Z,46.13
2018-02-27T10:34:30.652Z,45.97
2018-02-27T10:36:59.381Z,45.98
2018-02-27T10:39:27.824Z,46.25
2018-02-27T10:41:56.144Z,46.01
2018-02-27T10:44:25.375Z,45.64
2018-02-27T10:46:53.683Z,46.43
2018-02-27T10:49:22.798Z,46.36
2018-02-27T10:51:51.144Z,46.61
2018-02-27T10:54:20.278Z,46.61
2018-02-27T10:56:49.403Z,46.37
2018-02-27T10:59:17.797Z,45.96
2018-02-27T11:01:46.196Z,45.97
2018-02-27T11:04:14.619Z,45.65
2018-02-27T11:06:42.972Z,45.51
2018-02-27T11:09:11.396Z,45.21
2018-02-27T11:11:39.758Z,45.42
2018-02-27T11:14:08.106Z,45.29
2018-02-27T11:16:36.888Z,45.31
2018-02-27T11:19:05.233Z,45.46
2018-02-27T11:21:33.616Z,45.32
2018-02-27T11:24:02.718Z,45.32
2018-02-27T11:26:31.844Z,44.94
2018-02-27T11:29:00.186Z,44.91
2018-02-27T11:31:28.534Z,44.76
2018-02-27T11:33:57.659Z,45.24
2018-02-27T11:36:26.082Z,45.17
2018-02-27T11:38:54.415Z,44.50
2018-02-27T11:41:22.786Z,44.22
2018-02-27T11:43:51.940Z,44.64
2018-02-27T11:46:20.687Z,44.43
2018-02-27T11:48:49.052Z,44.48
2018-02-27T11:51:17.409Z,44.05
2018-02-27T11:53:45.803Z,43.62
2018-02-27T11:56:14.144Z,43.41
2018-02-27T11:58:42.460Z,43.16
2018-02-27T12:01:10.831Z,42.79
2018-02-27T12:03:39.228Z,43.24
2018-02-27T12:06:08.350Z,42.99
2018-02-27T12:08:36.726Z,43.48
2018-02-27T12:11:05.091Z,43.54
2018-02-27T12:13:33.460Z,43.29
2018-02-27T12:16:01.820Z,43.14
2018-02-27T12:18:31.513Z,43.16
2018-02-27T12:20:59.906Z,42.38
2018-02-27T12:23:28.295Z,42.46
2018-02-27T12:25:57.059Z,42.81
2018-02-27T12:28:25.428Z,42.93
2018-02-27T12:30:53.807Z,42.58
2018-02-27T12:33:22.158Z,42.62
2018-02-27T12:35:51.319Z,42.57
2018-02-27T12:38:19.685Z,42.37
2018-02-27T12:40:48.455Z,43.05
2018-02-27T12:43:17.155Z,42.88
2018-02-27T12:45:45.595Z,42.87
2018-02-27T12:48:14.729Z,42.46
2018-02-27T12:50:43.092Z,42.90
2018-02-27T12:53:11.439Z,43.10
2018-02-27T12:55:40.567Z,42.88
2018-02-27T12:58:08.929Z,42.76
2018-02-27T13:00:38.080Z,41.25
2018-02-27T13:03:06.405Z,41.07
2018-02-27T13:05:35.525Z,40.68
2018-02-27T13:08:03.877Z,40.48
2018-02-27T13:10:33.032Z,40.51
2018-02-27T13:13:01.389Z,41.12
2018-02-27T13:15:29.751Z,41.79
2018-02-27T13:17:58.495Z,41.72
2018-02-27T13:20:26.849Z,41.64
2018-02-27T13:22:55.281Z,41.32
2018-02-27T13:25:25.290Z,41.35
2018-02-27T13:27:54.439Z,40.56
2018-02-27T13:30:22.821Z,40.14
2018-02-27T13:32:51.142Z,40.25
2018-02-27T13:35:20.287Z,40.28
2018-02-27T13:37:48.623Z,40.55
2018-02-27T13:40:17.003Z,40.54
2018-02-27T13:42:45.345Z,39.61
2018-02-27T13:45:13.720Z,39.15
2018-02-27T13:47:42.059Z,39.03
2018-02-27T13:50:10.430Z,38.34
2018-02-27T13:52:38.774Z,38.53
2018-02-27T13:55:07.922Z,38.95
2018-02-27T13:57:36.260Z,39.03
2018-02-27T14:00:04.635Z,39.66
2018-02-27T14:02:32.987Z,39.41
2018-02-27T14:05:01.359Z,38.95
2018-02-27T14:07:30.121Z,38.92
2018-02-27T14:09:58.942Z,38.18
2018-02-27T14:12:27.698Z,37.83
2018-02-27T14:14:56.017Z,38.25
2018-02-27T14:17:24.392Z,38.38
2018-02-27T14:19:52.804Z,38.09
2018-02-27T14:22:21.540Z,38.31
2018-02-27T14:24:49.908Z,38.30
2018-02-27T14:27:18.274Z,38.15
2018-02-27T14:29:47.031Z,38.08
2018-02-27T14:32:15.410Z,37.90
2018-02-27T14:34:44.126Z,37.69
2018-02-27T14:37:12.450Z,37.72
2018-02-27T14:39:40.848Z,38.12
2018-02-27T14:42:09.198Z,38.54
2018-02-27T14:44:38.349Z,37.71
2018-02-27T14:47:06.731Z,38.04
2018-02-27T14:49:36.202Z,38.50
2018-02-27T14:52:05.762Z,38.76
2018-02-27T14:54:34.143Z,38.74
2018-02-27T14:57:02.571Z,39.14
2018-02-27T14:59:30.872Z,39.05
2018-02-27T15:01:59.239Z,38.88
2018-02-27T15:04:27.554Z,39.08
2018-02-27T15:06:56.749Z,38.47
2018-02-27T15:09:25.100Z,39.34
2018-02-27T15:11:53.490Z,39.58
2018-02-27T15:14:22.833Z,39.74
2018-02-27T15:16:51.977Z,39.75
2018-02-27T15:19:20.546Z,39.81
2018-02-27T15:21:49.298Z,39.01
2018-02-27T15:24:19.822Z,39.84
2018-02-27T15:26:49.575Z,39.62
2018-02-27T15:29:17.970Z,40.19
2018-02-27T15:31:46.718Z,40.12
2018-02-27T15:34:16.228Z,40.27
2018-02-27T15:36:44.609Z,40.39
2018-02-27T15:39:13.370Z,40.21
2018-02-27T15:41:42.865Z,40.31
2018-02-27T15:44:12.785Z,40.53
2018-02-27T15:46:41.559Z,40.76
2018-02-27T15:49:09.934Z,41.20
2018-02-27T15:51:38.298Z,41.57
2018-02-27T15:54:06.686Z,41.31
2018-02-27T15:56:35.818Z,41.68
2018-02-27T15:59:04.602Z,42.00
2018-02-27T16:01:33.356Z,42.07
2018-02-27T16:04:02.570Z,41.82
2018-02-27T16:06:30.919Z,42.20
2018-02-27T16:09:03.300Z,42.20
2018-02-27T16:11:32.429Z,42.67
2018-02-27T16:14:01.554Z,43.07
2018-02-27T16:16:31.207Z,43.36
2018-02-27T16:19:00.722Z,43.95
2018-02-27T16:21:29.895Z,44.26
2018-02-27T16:23:58.246Z,44.41
2018-02-27T16:26:26.981Z,44.60
2018-02-27T16:28:56.145Z,44.64
2018-02-27T16:31:24.905Z,44.94
2018-02-27T16:33:53.281Z,44.88
2018-02-27T16:36:22.418Z,44.91
2018-02-27T16:38:51.182Z,45.10
2018-02-27T16:41:20.293Z,45.23
2018-02-27T16:43:48.934Z,45.73
2018-02-27T16:46:17.309Z,46.42
2018-02-27T16:48:45.697Z,47.08
2018-02-27T16:51:14.039Z,47.54
2018-02-27T16:53:47.929Z,47.92
2018-02-27T16:56:16.308Z,48.86
2018-02-27T16:58:45.043Z,49.47
2018-02-27T17:01:13.757Z,49.76
2018-02-27T17:03:42.487Z,49.88
2018-02-27T17:06:10.834Z,50.23
2018-02-27T17:08:39.241Z,50.29
2018-02-27T17:11:08.106Z,50.22
2018-02-27T17:13:37.121Z,50.13
2018-02-27T17:16:13.690Z,50.19
2018-02-27T17:18:42.861Z,50.02
2018-02-27T17:21:17.194Z,49.60
2018-02-27T17:23:46.374Z,49.62
2018-02-27T17:26:15.554Z,49.55
2018-02-27T17:28:44.105Z,49.43
2018-02-27T17:31:12.491Z,49.22
2018-02-27T17:33:41.651Z,48.97
2018-02-27T17:36:11.631Z,49.16
2018-02-27T17:38:40.367Z,49.44
2018-02-27T17:41:10.250Z,49.95
2018-02-27T17:43:38.585Z,50.91
2018-02-27T17:46:07.685Z,52.22
2018-02-27T17:48:36.202Z,53.24
2018-02-27T17:51:05.269Z,53.65
2018-02-27T17:53:33.647Z,53.19
2018-02-27T17:56:01.966Z,53.21
2018-02-27T17:58:31.065Z,52.90
2018-02-27T18:00:59.442Z,52.92
2018-02-27T18:03:27.817Z,52.53
2018-02-27T18:05:56.949Z,52.25
2018-02-27T18:08:25.501Z,52.48
2018-02-27T18:10:54.272Z,52.32
2018-02-27T18:13:22.657Z,52.46
2018-02-27T18:15:51.045Z,52.29
2018-02-27T18:18:19.365Z,51.98
2018-02-27T18:20:48.121Z,52.01
2018-02-27T18:23:16.511Z,51.98
2018-02-27T18:25:44.850Z,51.92
2018-02-27T18:28:13.214Z,51.48
2018-02-27T18:30:41.598Z,51.75
2018-02-27T18:33:10.328Z,51.73
2018-02-27T18:35:39.490Z,51.77
2018-02-27T18:38:08.251Z,51.96
2018-02-27T18:40:36.585Z,51.41
2018-02-27T18:43:04.945Z,51.23
2018-02-27T18:45:33.283Z,50.95
2018-02-27T18:48:01.658Z,50.93
2018-02-27T18:50:30.375Z,50.90
2018-02-27T18:52:58.908Z,50.83
2018-02-27T18:55:27.247Z,51.10
2018-02-27T18:57:55.626Z,51.45
2018-02-27T19:00:24.013Z,51.82
2018-02-27T19:02:52.389Z,51.95
2018-02-27T19:05:21.188Z,52.17
2018-02-27T19:07:49.533Z,52.34
2018-02-27T19:10:17.892Z,52.56
2018-02-27T19:12:46.207Z,52.74
2018-02-27T19:15:14.594Z,52.91
2018-02-27T19:17:42.960Z,53.23
2018-02-27T19:20:11.337Z,53.42
2018-02-27T19:22:40.492Z,53.65
2018-02-27T19:25:09.602Z,53.85
2018-02-27T19:27:37.943Z,54.04
2018-02-27T19:30:07.045Z,54.04
2018-02-27T19:32:35.413Z,53.99
2018-02-27T19:35:04.502Z,53.78
2018-02-27T19:37:33.646Z,53.88
2018-02-27T19:40:02.898Z,53.97
2018-02-27T19:42:32.013Z,54.07
2018-02-27T19:45:00.342Z,54.23
2018-02-27T19:47:28.734Z,54.29
2018-02-27T19:49:57.826Z,54.25
2018-02-27T19:52:26.557Z,54.28
2018-02-27T19:54:54.909Z,54.42
2018-02-27T19:57:24.599Z,54.52
2018-02-27T19:59:53.349Z,54.91
2018-02-27T20:02:21.697Z,55.05
2018-02-27T20:04:50.481Z,55.18
2018-02-27T20:07:19.569Z,55.23
2018-02-27T20:09:47.982Z,55.04
2018-02-27T20:12:16.743Z,55.08
2018-02-27T20:14:45.887Z,55.20
2018-02-27T20:17:14.636Z,55.19
2018-02-27T20:19:43.754Z,55.32
2018-02-27T20:22:12.132Z,55.34
2018-02-27T20:24:40.509Z,55.42
2018-02-27T20:27:09.635Z,55.70
2018-02-27T20:29:37.955Z,55.71
2018-02-27T20:32:07.053Z,55.89
2018-02-27T20:34:35.420Z,55.95
2018-02-27T20:37:04.548Z,56.24
2018-02-27T20:39:32.903Z,55.91
2018-02-27T20:42:02.037Z,56.02
2018-02-27T20:44:30.457Z,55.61
2018-02-27T20:46:58.824Z,55.20
2018-02-27T20:49:27.178Z,55.08
2018-02-27T20:51:56.399Z,55.33
2018-02-27T20:54:26.080Z,55.84
2018-02-27T20:56:55.622Z,56.30
2018-02-27T20:59:23.981Z,55.94
2018-02-27T21:01:52.359Z,55.91
2018-02-27T21:04:21.084Z,56.21
2018-02-27T21:06:49.472Z,56.50
2018-02-27T21:09:17.804Z,57.16
2018-02-27T21:11:46.150Z,57.22
2018-02-27T21:14:14.527Z,57.35
2018-02-27T21:16:43.256Z,57.17
2018-02-27T21:19:11.602Z,57.30
2018-02-27T21:21:39.987Z,57.06
2018-02-27T21:24:08.711Z,57.06
2018-02-27T21:26:37.840Z,57.13
2018-02-27T21:29:06.219Z,57.49
2018-02-27T21:31:35.341Z,57.47
2018-02-27T21:34:03.697Z,57.26
2018-02-27T21:36:32.467Z,57.42
2018-02-27T21:39:00.794Z,57.36
2018-02-27T21:41:30.668Z,57.68
2018-02-27T21:43:59.037Z,57.78
2018-02-27T21:46:27.463Z,57.87
2018-02-27T21:48:55.823Z,58.27
2018-02-27T21:51:24.175Z,58.26
2018-02-27T21:53:53.315Z,58.36
2018-02-27T21:56:21.663Z,58.54
2018-02-27T21:58:50.052Z,58.79
2018-02-27T22:01:18.822Z,59.06
2018-02-27T22:03:48.837Z,59.20
2018-02-27T22:06:17.215Z,59.28
2018-02-27T22:08:45.594Z,59.38
2018-02-27T22:11:13.956Z,59.70
2018-02-27T22:13:42.294Z,59.81
2018-02-27T22:16:11.467Z,60.05
2018-02-27T22:18:39.801Z,60.26
2018-02-27T22:21:08.181Z,60.43
2018-02-27T22:23:36.535Z,60.89
2018-02-27T22:26:05.677Z,61.06
2018-02-27T22:28:34.475Z,61.42
2018-02-27T22:31:02.809Z,61.58
2018-02-27T22:33:31.158Z,61.70
2018-02-27T22:35:59.535Z,61.85
2018-02-27T22:38:29.443Z,61.93
2018-02-27T22:40:59.295Z,62.39
2018-02-27T22:43:27.738Z,62.80
2018-02-27T22:45:56.061Z,63.09
2018-02-27T22:48:24.418Z,63.06
2018-02-27T22:50:53.140Z,62.99
2018-02-27T22:53:21.534Z,62.91
2018-02-27T22:55:49.871Z,63.22
2018-02-27T22:58:19.040Z,63.48
2018-02-27T23:00:48.183Z,63.39
2018-02-27T23:03:16.527Z,63.69
2018-02-27T23:05:44.846Z,63.74
2018-02-27T23:08:13.212Z,63.85
2018-02-27T23:10:41.603Z,63.99
2018-02-27T23:13:10.741Z,64.03
2018-02-27T23:15:39.077Z,64.05
2018-02-27T23:18:07.417Z,64.20
2018-02-27T23:20:36.580Z,64.41
2018-02-27T23:23:04.993Z,64.66
2018-02-27T23:25:44.846Z,64.83
2018-02-27T23:28:16.143Z,65.10
2018-02-27T23:30:45.829Z,65.28
2018-02-27T23:33:20.407Z,65.54
2018-02-27T23:35:49.174Z,65.68
2018-02-27T23:38:17.918Z,65.85
2018-02-27T23:40:46.298Z,66.11
2018-02-27T23:43:14.638Z,66.33
2018-02-27T23:45:43.021Z,66.70
2018-02-27T23:48:12.501Z,66.81
2018-02-27T23:50:40.846Z,67.02
2018-02-27T23:53:09.979Z,67.18
2018-02-27T23:55:39.818Z,67.51
2018-02-27T23:58:08.962Z,67.68
